createdAt,value
2022-08-05T00:01:49.658Z,90.25
2022-08-05T00:04:15.022Z,88.74
2022-08-05T00:06:43.825Z,88.40
2022-08-05T00:09:13.155Z,88.67
2022-08-05T00:11:49.457Z,88.99
2022-08-05T00:14:17.152Z,90.75
2022-08-05T00:16:52.466Z,92.46
2022-08-05T00:19:14.445Z,91.75
2022-08-05T00:21:43.653Z,90.13
2022-08-05T00:24:18.899Z,91.18
2022-08-05T00:26:50.797Z,89.41
2022-08-05T00:29:13.487Z,90.30
2022-08-05T00:31:53.274Z,91.83
2022-08-05T00:34:56.663Z,90.90
2022-08-05T00:37:10.726Z,90.52
2022-08-05T00:39:14.400Z,90.89
2022-08-05T00:41:51.675Z,89.99
2022-08-05T00:44:15.427Z,91.54
2022-08-05T00:46:44.154Z,89.82
2022-08-05T00:49:13.988Z,91.07
2022-08-05T00:51:51.920Z,92.46
2022-08-05T00:54:15.234Z,91.23
2022-08-05T00:56:51.557Z,89.81
2022-08-05T00:59:16.023Z,90.96
2022-08-05T01:01:48.069Z,93.30
2022-08-05T01:04:15.716Z,92.35
2022-08-05T01:06:48.518Z,91.72
2022-08-05T01:09:15.222Z,90.55
2022-08-05T01:11:48.321Z,91.27
2022-08-05T01:14:28.313Z,92.16
2022-08-05T01:16:57.160Z,92.24
2022-08-05T01:19:56.928Z,90.35
2022-08-05T01:22:15.553Z,91.68
2022-08-05T01:24:57.827Z,92.61
2022-08-05T01:27:28.302Z,94.07
2022-08-05T01:30:00.131Z,96.10
2022-08-05T01:32:33.078Z,95.91
2022-08-05T01:35:03.544Z,93.59
2022-08-05T01:37:36.705Z,95.85
2022-08-05T01:40:08.229Z,94.17
2022-08-05T01:42:38.877Z,96.19
2022-08-05T01:45:09.799Z,96.02
2022-08-05T01:47:43.409Z,95.97
2022-08-05T01:50:15.130Z,94.70
2022-08-05T01:52:43.924Z,94.41
2022-08-05T01:55:14.227Z,95.93
2022-08-05T01:58:10.297Z,96.82
2022-08-05T02:00:15.188Z,98.14
2022-08-05T02:02:54.303Z,98.01
2022-08-05T02:05:19.653Z,98.20
2022-08-05T02:08:00.278Z,95.38
2022-08-05T02:10:28.155Z,95.46
2022-08-05T02:12:54.581Z,96.54
2022-08-05T02:15:25.108Z,98.61
2022-08-05T02:18:31.909Z,99.21
2022-08-05T02:20:29.675Z,97.48
2022-08-05T02:23:01.963Z,99.80
2022-08-05T02:25:35.925Z,100.00
2022-08-05T02:28:08.985Z,98.78
2022-08-05T02:30:54.277Z,99.74
2022-08-05T02:33:24.577Z,99.24
2022-08-05T02:35:58.980Z,98.36
2022-08-05T02:38:20.524Z,100.00
2022-08-05T02:40:52.217Z,100.00
2022-08-05T02:43:21.223Z,100.00
2022-08-05T02:45:53.878Z,100.00
2022-08-05T02:48:29.096Z,100.00
2022-08-05T02:50:54.084Z,100.00
2022-08-05T02:53:24.049Z,100.00
2022-08-05T02:56:00.083Z,100.00
2022-08-05T02:58:26.751Z,100.00
2022-08-05T03:00:56.962Z,100.00
2022-08-05T03:03:27.154Z,100.00
2022-08-05T03:06:55.961Z,100.00
2022-08-05T03:08:30.015Z,100.00
2022-08-05T03:11:01.323Z,100.00
2022-08-05T03:13:51.141Z,100.00
2022-08-05T03:15:59.680Z,100.00
2022-08-05T03:18:30.087Z,100.00
2022-08-05T03:20:58.783Z,100.00
2022-08-05T03:23:28.993Z,100.00
2022-08-05T03:26:30.510Z,100.00
2022-08-05T03:28:31.116Z,100.00
2022-08-05T03:31:01.375Z,100.00
2022-08-05T03:33:42.267Z,100.00
2022-08-05T03:36:01.018Z,100.00
2022-08-05T03:38:32.664Z,100.00
2022-08-05T03:41:00.261Z,100.00
2022-08-05T03:44:09.701Z,100.00
2022-08-05T03:46:02.208Z,100.00
2022-08-05T03:48:35.437Z,100.00
2022-08-05T03:52:37.935Z,100.00
2022-08-05T03:55:34.099Z,100.00
2022-08-05T03:56:35.114Z,100.00
2022-08-05T03:59:02.886Z,100.00
2022-08-05T04:01:32.525Z,100.00
2022-08-05T04:04:09.427Z,100.00
2022-08-05T04:06:33.888Z,100.00
2022-08-05T04:09:03.937Z,100.00
2022-08-05T04:11:50.732Z,100.00
2022-08-05T04:14:04.132Z,100.00
2022-08-05T04:16:33.054Z,100.00
2022-08-05T04:19:02.608Z,100.00
2022-08-05T04:22:08.748Z,100.00
2022-08-05T04:24:06.996Z,100.00
2022-08-05T04:26:35.295Z,100.00
2022-08-05T04:29:07.380Z,100.00
2022-08-05T04:31:38.464Z,100.00
2022-08-05T04:34:31.917Z,100.00
2022-08-05T04:36:44.985Z,100.00
2022-08-05T04:39:08.604Z,100.00
2022-08-05T04:41:38.684Z,100.00
2022-08-05T04:44:09.586Z,100.00
2022-08-05T04:46:38.772Z,100.00
2022-08-05T04:49:12.294Z,100.00
2022-08-05T04:51:38.412Z,100.00
2022-08-05T04:54:07.221Z,100.00
2022-08-05T04:56:37.623Z,100.00
2022-08-05T04:59:22.274Z,100.00
2022-08-05T05:02:08.231Z,100.00
2022-08-05T05:04:09.425Z,100.00
2022-08-05T05:06:49.371Z,100.00
2022-08-05T05:09:13.309Z,100.00
2022-08-05T05:11:53.133Z,99.55
2022-08-05T05:14:16.239Z,99.63
2022-08-05T05:16:42.433Z,96.29
2022-08-05T05:19:23.440Z,94.37
2022-08-05T05:21:43.134Z,100.00
2022-08-05T05:24:14.286Z,100.00
2022-08-05T05:26:46.510Z,92.91
2022-08-05T05:29:15.122Z,92.11
2022-08-05T05:31:46.247Z,93.49
2022-08-05T05:34:14.403Z,92.80
2022-08-05T05:36:47.028Z,93.88
2022-08-05T05:39:16.019Z,92.27
2022-08-05T05:41:46.320Z,89.94
2022-08-05T05:44:37.785Z,88.72
2022-08-05T05:46:47.809Z,91.03
2022-08-05T05:49:22.589Z,88.47
2022-08-05T05:51:49.722Z,88.02
2022-08-05T05:54:18.288Z,86.91
2022-08-05T05:56:48.497Z,87.13
2022-08-05T05:59:18.745Z,87.21
2022-08-05T06:01:57.339Z,86.47
2022-08-05T06:04:19.397Z,86.81
2022-08-05T06:06:49.701Z,86.63
2022-08-05T06:09:24.890Z,84.65
2022-08-05T06:12:01.838Z,85.40
2022-08-05T06:14:19.236Z,83.93
2022-08-05T06:16:47.960Z,84.54
2022-08-05T06:19:34.255Z,88.18
2022-08-05T06:21:49.936Z,85.58
2022-08-05T06:24:18.972Z,89.71
2022-08-05T06:26:51.964Z,78.08
2022-08-05T06:29:42.878Z,80.86
2022-08-05T06:31:51.350Z,80.96
2022-08-05T06:34:20.397Z,81.72
2022-08-05T06:36:57.366Z,80.19
2022-08-05T06:39:21.799Z,80.75
2022-08-05T06:41:54.181Z,76.77
2022-08-05T06:44:22.998Z,73.20
2022-08-05T06:46:51.958Z,75.33
2022-08-05T06:50:01.995Z,76.99
2022-08-05T06:51:54.047Z,73.79
2022-08-05T06:54:25.909Z,76.25
2022-08-05T06:56:55.055Z,74.49
2022-08-05T06:59:23.981Z,71.66
2022-08-05T07:01:53.185Z,73.75
2022-08-05T07:04:23.716Z,71.28
2022-08-05T07:06:53.424Z,72.10
2022-08-05T07:09:24.915Z,72.14
2022-08-05T07:11:52.782Z,77.47
2022-08-05T07:14:39.425Z,71.75
2022-08-05T07:17:59.254Z,76.63
2022-08-05T07:22:09.882Z,68.86
2022-08-05T07:24:43.885Z,69.14
2022-08-05T07:27:10.682Z,70.60
2022-08-05T07:30:22.262Z,67.45
2022-08-05T07:32:12.417Z,66.78
2022-08-05T07:34:42.779Z,67.25
2022-08-05T07:37:11.872Z,70.03
2022-08-05T07:40:04.419Z,68.42
2022-08-05T07:42:15.125Z,65.38
2022-08-05T07:44:41.453Z,65.11
2022-08-05T07:47:16.844Z,65.28
2022-08-05T07:49:43.555Z,66.44
2022-08-05T07:52:12.601Z,65.06
2022-08-05T07:54:47.665Z,68.56
2022-08-05T07:57:22.694Z,63.82
2022-08-05T07:59:42.308Z,63.25
2022-08-05T08:02:15.848Z,59.79
2022-08-05T08:04:42.528Z,61.78
2022-08-05T08:07:13.245Z,64.41
2022-08-05T08:09:41.982Z,65.09
2022-08-05T08:12:27.558Z,63.34
2022-08-05T08:14:41.575Z,63.03
2022-08-05T08:17:16.050Z,60.17
2022-08-05T08:20:21.750Z,59.82
2022-08-05T08:22:15.916Z,59.99
2022-08-05T08:24:51.351Z,62.00
2022-08-05T08:27:16.650Z,53.47
2022-08-05T08:30:05.803Z,55.73
2022-08-05T08:32:15.540Z,51.09
2022-08-05T08:34:45.905Z,55.21
2022-08-05T08:37:18.884Z,56.01
2022-08-05T08:39:49.725Z,55.19
2022-08-05T08:42:33.980Z,53.25
2022-08-05T08:45:20.945Z,54.35
2022-08-05T08:47:47.454Z,52.78
2022-08-05T08:50:18.081Z,52.71
2022-08-05T08:52:23.149Z,50.18
2022-08-05T08:54:53.771Z,54.86
2022-08-05T08:57:22.656Z,49.26
2022-08-05T08:59:51.872Z,50.35
2022-08-05T09:02:21.684Z,50.40
2022-08-05T09:05:16.331Z,50.06
2022-08-05T09:07:28.629Z,49.47
2022-08-05T09:09:53.506Z,49.75
2022-08-05T09:12:27.337Z,46.41
2022-08-05T09:15:03.974Z,46.91
2022-08-05T09:17:42.699Z,45.50
2022-08-05T09:20:01.723Z,48.55
2022-08-05T09:22:32.100Z,47.92
2022-08-05T09:25:02.238Z,44.11
2022-08-05T09:28:04.775Z,47.24
2022-08-05T09:30:06.803Z,45.90
2022-08-05T09:32:50.002Z,44.62
2022-08-05T09:35:26.455Z,46.29
2022-08-05T09:38:17.572Z,44.46
2022-08-05T09:40:41.091Z,44.11
2022-08-05T09:43:12.937Z,40.98
2022-08-05T09:46:06.122Z,46.03
2022-08-05T09:48:26.943Z,41.10
2022-08-05T09:50:57.527Z,42.87
2022-08-05T09:53:53.437Z,41.11
2022-08-05T09:56:04.977Z,41.45
2022-08-05T09:58:29.804Z,43.67
2022-08-05T10:01:01.150Z,42.15
2022-08-05T10:03:56.943Z,42.56
2022-08-05T10:06:14.697Z,41.40
2022-08-05T10:08:38.255Z,40.29
2022-08-05T10:11:17.722Z,40.66
2022-08-05T10:13:48.360Z,43.59
2022-08-05T10:16:34.334Z,38.31
2022-08-05T10:19:09.134Z,41.42
2022-08-05T10:21:40.693Z,40.46
2022-08-05T10:24:10.757Z,41.03
2022-08-05T10:26:51.277Z,41.47
2022-08-05T10:29:09.748Z,40.13
2022-08-05T10:32:53.760Z,36.43
2022-08-05T10:34:12.597Z,37.17
2022-08-05T10:36:42.789Z,37.86
2022-08-05T10:39:24.889Z,39.24
2022-08-05T10:41:51.381Z,39.19
2022-08-05T10:44:21.580Z,38.56
2022-08-05T10:46:54.194Z,35.53
2022-08-05T10:49:33.359Z,39.60
2022-08-05T10:52:02.505Z,34.11
2022-08-05T10:54:56.832Z,35.05
2022-08-05T10:57:32.244Z,33.85
2022-08-05T11:00:20.731Z,34.88
2022-08-05T11:03:24.750Z,34.61
2022-08-05T11:05:37.730Z,35.68
2022-08-05T11:08:36.561Z,37.24
2022-08-05T11:10:50.442Z,34.68
2022-08-05T11:13:14.245Z,37.31
2022-08-05T11:15:59.956Z,33.17
2022-08-05T11:18:29.987Z,34.31
2022-08-05T11:21:02.166Z,40.94
2022-08-05T11:24:05.689Z,35.04
2022-08-05T11:26:12.385Z,34.88
2022-08-05T11:28:44.164Z,34.65
2022-08-05T11:31:19.528Z,40.71
2022-08-05T11:33:49.214Z,37.54
2022-08-05T11:36:34.586Z,38.34
2022-08-05T11:38:54.865Z,36.39
2022-08-05T11:41:58.004Z,37.50
2022-08-05T11:44:07.606Z,36.44
2022-08-05T11:46:34.975Z,36.50
2022-08-05T11:49:04.637Z,35.35
2022-08-05T11:51:44.312Z,37.30
2022-08-05T11:54:04.448Z,34.60
2022-08-05T11:56:50.456Z,35.26
2022-08-05T11:59:21.308Z,33.17
2022-08-05T12:02:24.000Z,33.48
2022-08-05T12:04:43.157Z,35.77
2022-08-05T12:07:17.892Z,35.79
2022-08-05T12:09:53.199Z,37.03
2022-08-05T12:12:28.853Z,35.36
2022-08-05T12:14:58.255Z,34.58
2022-08-05T12:17:57.936Z,35.30
2022-08-05T12:20:16.684Z,35.11
2022-08-05T12:22:32.160Z,34.40
2022-08-05T12:25:00.998Z,31.46
2022-08-05T12:27:33.368Z,35.46
2022-08-05T12:30:03.798Z,32.35
2022-08-05T12:32:34.164Z,33.33
2022-08-05T12:35:06.582Z,33.24
2022-08-05T12:37:38.022Z,33.72
2022-08-05T12:40:10.818Z,31.65
2022-08-05T12:42:40.711Z,34.18
2022-08-05T12:45:11.935Z,31.40
2022-08-05T12:47:43.582Z,28.80
2022-08-05T12:50:16.159Z,29.52
2022-08-05T12:52:46.399Z,32.70
2022-08-05T12:55:22.402Z,30.51
2022-08-05T12:58:51.272Z,31.24
2022-08-05T13:02:01.593Z,31.96
2022-08-05T13:02:56.344Z,32.79
2022-08-05T13:05:25.606Z,29.46
2022-08-05T13:07:59.653Z,32.24
2022-08-05T13:10:28.744Z,31.56
2022-08-05T13:12:58.835Z,30.26
2022-08-05T13:15:41.721Z,29.18
2022-08-05T13:18:12.244Z,30.59
2022-08-05T13:20:42.675Z,30.71
2022-08-05T13:23:12.714Z,30.44
2022-08-05T13:25:52.556Z,29.41
2022-08-05T13:28:13.071Z,31.97
2022-08-05T13:30:43.278Z,31.11
2022-08-05T13:34:23.243Z,30.42
2022-08-05T13:35:50.354Z,28.37
2022-08-05T13:38:28.249Z,27.91
2022-08-05T13:40:51.820Z,29.37
2022-08-05T13:43:21.986Z,30.47
2022-08-05T13:45:48.491Z,29.91
2022-08-05T13:48:58.774Z,31.25
2022-08-05T13:50:49.291Z,27.85
2022-08-05T13:53:18.171Z,28.41
2022-08-05T13:55:49.313Z,31.63
2022-08-05T13:58:30.423Z,28.78
2022-08-05T14:00:48.403Z,31.54
2022-08-05T14:03:18.845Z,28.74
2022-08-05T14:06:25.399Z,32.01
2022-08-05T14:08:20.800Z,31.40
2022-08-05T14:10:50.113Z,27.73
2022-08-05T14:13:18.839Z,31.16
2022-08-05T14:16:05.914Z,33.43
2022-08-05T14:18:23.492Z,29.08
2022-08-05T14:20:54.618Z,29.18
2022-08-05T14:23:25.423Z,28.57
2022-08-05T14:25:54.310Z,28.38
2022-08-05T14:28:26.472Z,28.91
2022-08-05T14:30:53.615Z,30.93
2022-08-05T14:33:23.894Z,28.34
2022-08-05T14:35:54.553Z,30.25
2022-08-05T14:38:33.241Z,29.98
2022-08-05T14:40:54.642Z,31.25
2022-08-05T14:43:57.516Z,28.92
2022-08-05T14:45:53.863Z,27.87
2022-08-05T14:48:33.495Z,31.96
2022-08-05T14:50:53.097Z,29.87
2022-08-05T14:53:22.009Z,30.49
2022-08-05T14:55:52.598Z,28.46
2022-08-05T14:58:21.103Z,29.17
2022-08-05T15:00:57.975Z,29.58
2022-08-05T15:03:20.401Z,29.10
2022-08-05T15:06:08.380Z,29.68
2022-08-05T15:08:39.689Z,30.42
2022-08-05T15:10:52.930Z,29.88
2022-08-05T15:13:44.871Z,29.99
2022-08-05T15:15:56.268Z,31.36
2022-08-05T15:18:25.129Z,31.35
2022-08-05T15:20:54.012Z,28.16
2022-08-05T15:23:22.948Z,35.53
2022-08-05T15:25:55.910Z,29.35
2022-08-05T15:28:27.221Z,28.71
2022-08-05T15:30:54.057Z,31.37
2022-08-05T15:34:05.213Z,29.40
2022-08-05T15:35:53.484Z,30.77
2022-08-05T15:38:34.072Z,32.24
2022-08-05T15:41:21.280Z,32.26
2022-08-05T15:43:23.229Z,33.01
2022-08-05T15:45:59.745Z,30.82
2022-08-05T15:48:23.251Z,32.90
2022-08-05T15:50:51.999Z,31.26
2022-08-05T15:53:26.413Z,31.95
2022-08-05T15:56:02.511Z,33.03
2022-08-05T15:58:29.223Z,34.55
2022-08-05T16:01:16.313Z,32.34
2022-08-05T16:03:41.210Z,33.86
2022-08-05T16:06:11.214Z,36.98
2022-08-05T16:08:44.553Z,33.14
2022-08-05T16:11:13.353Z,33.14
2022-08-05T16:13:43.635Z,36.17
2022-08-05T16:16:12.352Z,34.01
2022-08-05T16:18:52.512Z,34.37
2022-08-05T16:21:11.654Z,35.80
2022-08-05T16:23:54.018Z,40.67
2022-08-05T16:26:12.501Z,41.93
2022-08-05T16:28:41.504Z,39.57
2022-08-05T16:31:10.650Z,39.85
2022-08-05T16:33:41.650Z,37.99
2022-08-05T16:36:10.949Z,38.46
2022-08-05T16:38:39.701Z,38.53
2022-08-05T16:42:12.483Z,40.37
2022-08-05T16:43:39.875Z,42.12
2022-08-05T16:46:12.865Z,44.02
2022-08-05T16:48:39.216Z,41.34
2022-08-05T16:51:10.354Z,43.21
2022-08-05T16:54:06.074Z,51.07
2022-08-05T16:56:10.352Z,52.03
2022-08-05T16:58:40.946Z,48.53
2022-08-05T17:01:11.177Z,49.28
2022-08-05T17:03:40.003Z,55.22
2022-08-05T17:06:09.951Z,58.15
2022-08-05T17:08:52.777Z,57.89
2022-08-05T17:11:16.482Z,60.94
2022-08-05T17:13:42.279Z,56.95
2022-08-05T17:18:41.598Z,63.54
2022-08-05T17:21:10.498Z,63.34
2022-08-05T17:24:04.503Z,62.21
2022-08-05T17:26:09.742Z,67.02
2022-08-05T17:28:40.110Z,67.21
2022-08-05T17:31:24.609Z,59.80
2022-08-05T17:33:48.537Z,57.27
2022-08-05T17:36:32.405Z,57.06
2022-08-05T17:38:42.229Z,62.77
2022-08-05T17:42:16.511Z,68.12
2022-08-05T17:43:47.304Z,66.94
2022-08-05T17:46:12.281Z,69.04
2022-08-05T17:48:44.800Z,73.70
2022-08-05T17:51:13.914Z,74.50
2022-08-05T17:53:45.908Z,75.35
2022-08-05T17:56:17.891Z,75.79
2022-08-05T17:58:46.682Z,67.51
2022-08-05T18:01:15.627Z,65.05
2022-08-05T18:03:58.865Z,64.82
2022-08-05T18:06:15.724Z,67.09
2022-08-05T18:08:52.086Z,65.74
2022-08-05T18:11:23.358Z,59.96
2022-08-05T18:13:46.656Z,57.80
2022-08-05T18:16:17.456Z,55.34
2022-08-05T18:18:50.225Z,55.50
2022-08-05T18:21:23.038Z,54.38
2022-08-05T18:23:53.521Z,54.10
2022-08-05T18:26:27.732Z,55.56
2022-08-05T18:28:57.091Z,54.32
2022-08-05T18:31:26.022Z,54.35
2022-08-05T18:33:56.659Z,54.43
2022-08-05T18:36:28.196Z,56.87
2022-08-05T18:38:57.235Z,55.77
2022-08-05T18:41:56.033Z,56.12
2022-08-05T18:43:56.568Z,56.14
2022-08-05T18:46:29.076Z,56.50
2022-08-05T18:48:59.249Z,57.53
2022-08-05T18:52:02.790Z,57.64
2022-08-05T18:54:17.283Z,57.68
2022-08-05T18:56:51.817Z,57.92
2022-08-05T18:59:42.873Z,59.50
2022-08-05T19:01:47.521Z,59.22
2022-08-05T19:04:24.292Z,60.18
2022-08-05T19:06:47.179Z,60.22
2022-08-05T19:09:15.929Z,61.69
2022-08-05T19:12:00.496Z,60.60
2022-08-05T19:14:44.656Z,61.50
2022-08-05T19:16:46.776Z,61.00
2022-08-05T19:19:16.052Z,62.35
2022-08-05T19:21:47.405Z,62.19
2022-08-05T19:24:17.752Z,61.96
2022-08-05T19:26:54.548Z,62.75
2022-08-05T19:29:18.969Z,63.58
2022-08-05T19:31:51.263Z,63.57
2022-08-05T19:34:18.677Z,64.89
2022-08-05T19:36:47.652Z,63.80
2022-08-05T19:39:18.399Z,63.53
2022-08-05T19:42:06.059Z,64.11
2022-08-05T19:44:19.334Z,63.86
2022-08-05T19:46:50.261Z,64.29
2022-08-05T19:49:19.566Z,64.52
2022-08-05T19:52:08.778Z,65.51
2022-08-05T19:54:26.938Z,64.81
2022-08-05T19:56:50.307Z,64.71
2022-08-05T19:59:50.909Z,65.34
2022-08-05T20:01:49.386Z,65.25
2022-08-05T20:04:19.129Z,65.79
2022-08-05T20:06:48.736Z,66.44
2022-08-05T20:09:17.538Z,66.33
2022-08-05T20:11:48.252Z,66.46
2022-08-05T20:14:26.753Z,67.06
2022-08-05T20:16:50.694Z,67.81
2022-08-05T20:19:19.518Z,68.13
2022-08-05T20:21:50.275Z,69.57
2022-08-05T20:24:22.252Z,70.79
2022-08-05T20:26:52.453Z,70.87
2022-08-05T20:29:27.323Z,70.99
2022-08-05T20:31:56.154Z,71.40
2022-08-05T20:34:21.960Z,71.73
2022-08-05T20:36:51.895Z,72.81
2022-08-05T20:39:20.946Z,77.65
2022-08-05T20:41:50.091Z,75.54
2022-08-05T20:44:29.401Z,74.88
2022-08-05T20:46:49.453Z,76.66
2022-08-05T20:49:24.148Z,76.89
2022-08-05T20:51:53.630Z,76.99
2022-08-05T20:54:19.103Z,77.80
2022-08-05T20:56:48.981Z,77.23
2022-08-05T20:59:26.644Z,78.72
2022-08-05T21:01:49.369Z,79.45
2022-08-05T21:04:19.615Z,81.00
2022-08-05T21:06:48.581Z,82.07
2022-08-05T21:09:19.045Z,80.92
2022-08-05T21:12:11.014Z,81.89
2022-08-05T21:14:19.052Z,84.84
2022-08-05T21:16:47.809Z,84.53
2022-08-05T21:19:18.235Z,83.94
2022-08-05T21:21:50.829Z,87.04
2022-08-05T21:24:20.012Z,87.00
2022-08-05T21:26:57.824Z,89.22
2022-08-05T21:29:19.307Z,91.04
2022-08-05T21:31:50.871Z,88.40
2022-08-05T21:34:20.976Z,100.00
2022-08-05T21:36:50.925Z,100.00
2022-08-05T21:39:26.942Z,100.00
2022-08-05T21:41:52.664Z,100.00
2022-08-05T21:44:26.916Z,100.00
2022-08-05T21:46:50.972Z,100.00
2022-08-05T21:49:59.313Z,100.00
2022-08-05T21:52:21.971Z,100.00
2022-08-05T21:54:27.955Z,100.00
2022-08-05T21:57:01.072Z,100.00
2022-08-05T21:59:25.009Z,100.00
2022-08-05T22:01:54.428Z,100.00
2022-08-05T22:04:25.622Z,100.00
2022-08-05T22:06:54.106Z,100.00
2022-08-05T22:09:24.477Z,100.00
2022-08-05T22:11:54.837Z,100.00
2022-08-05T22:14:35.140Z,100.00
2022-08-05T22:17:01.462Z,100.00
2022-08-05T22:20:01.069Z,100.00
2022-08-05T22:21:57.087Z,100.00
2022-08-05T22:24:51.861Z,100.00
2022-08-05T22:28:08.641Z,100.00
2022-08-05T22:30:02.430Z,100.00
2022-08-05T22:32:33.020Z,100.00
2022-08-05T22:35:01.778Z,100.00
2022-08-05T22:37:58.733Z,100.00
2022-08-05T22:40:02.902Z,100.00
2022-08-05T22:42:33.380Z,100.00
2022-08-05T22:45:03.564Z,100.00
2022-08-05T22:47:32.322Z,100.00
2022-08-05T22:50:21.666Z,100.00
2022-08-05T22:52:34.518Z,100.00
2022-08-05T22:55:04.770Z,100.00
2022-08-05T22:57:36.745Z,100.00
2022-08-05T23:00:09.221Z,100.00
2022-08-05T23:02:46.717Z,100.00
2022-08-05T23:05:09.254Z,100.00
2022-08-05T23:07:45.371Z,100.00
2022-08-05T23:10:10.045Z,100.00
2022-08-05T23:12:39.153Z,100.00
2022-08-05T23:15:09.104Z,100.00
2022-08-05T23:17:59.865Z,100.00
2022-08-05T23:20:16.482Z,100.00
2022-08-05T23:22:40.115Z,100.00
2022-08-05T23:25:09.304Z,100.00
2022-08-05T23:27:57.534Z,100.00
2022-08-05T23:30:11.761Z,100.00
2022-08-05T23:32:45.289Z,100.00
2022-08-05T23:35:11.809Z,100.00
2022-08-05T23:37:40.643Z,100.00
2022-08-05T23:40:11.083Z,100.00
2022-08-05T23:42:41.190Z,100.00
2022-08-05T23:45:14.396Z,100.00
2022-08-05T23:47:47.740Z,100.00
2022-08-05T23:50:12.516Z,100.00
2022-08-05T23:52:49.541Z,100.00
2022-08-05T23:55:12.150Z,100.00
2022-08-05T23:57:41.912Z,100.00
